M I D A S
Marine Information and Data Acquisition System
Tripno 1471 of the Zeeleeuw from 2008-02-21 08:08:07 to 2008-02-21 13:14:37
Back to CruiseResearch ActivitiesStationsMapUnderway DataData graphs

EquipmentUnitsComment
TimeDGPSUTC
LatitudeDGPSDM.mWGS84
LongitudeDGPSDM.mWGS84
HeadingGyrodeg 
SOGDGPSknotsSpeed over ground
COGDGPSdegCourse over ground
DepthEcho soundermeters200 kHz
Missing or incorrect values are displayed as -999
Navigation data collected by the RV Zeeleeuw from 2008-02-21 08:05:32 to 2008-02-21 13:29:38
                                                                                    Next 1000 lines
Time Latitude Longitude Heading SOG COG Depth
2008-02-21 08:05:42 51°13.664 2°55.956 128.4 0.1 35 5.6
2008-02-21 08:05:46 51°13.664 2°55.956 128.8 -999 97 5.6
2008-02-21 08:05:51 51°13.664 2°55.956 128.7 0.1 75 5.6
2008-02-21 08:05:57 51°13.664 2°55.956 128.4 0.1 46 5.6
2008-02-21 08:06:01 51°13.664 2°55.956 128 -999 193 5.6
2008-02-21 08:06:06 51°13.664 2°55.956 127 -999 71 5.6
2008-02-21 08:06:11 51°13.664 2°55.956 126.5 0.1 198 5.6
2008-02-21 08:06:16 51°13.664 2°55.956 126 0.1 229 5.7
2008-02-21 08:06:21 51°13.664 2°55.956 125.8 0.1 203 5.7
2008-02-21 08:06:26 51°13.664 2°55.956 125.8 0.1 27 5.7
2008-02-21 08:06:31 51°13.665 2°55.956 125.8 -999 88 -999
2008-02-21 08:06:37 51°13.664 2°55.956 125.7 0.1 182 5.6
2008-02-21 08:06:42 51°13.664 2°55.956 125 -999 177 5.6
2008-02-21 08:06:46 51°13.664 2°55.956 124.4 0.1 199 5.6
2008-02-21 08:06:52 51°13.664 2°55.956 123.8 0.1 174 -999
2008-02-21 08:06:57 51°13.664 2°55.956 123 0.1 195 5.6
2008-02-21 08:07:01 51°13.664 2°55.956 122.3 0.1 194 5.7
2008-02-21 08:07:06 51°13.664 2°55.956 121.6 0.1 195 5.7
2008-02-21 08:07:11 51°13.664 2°55.956 120.7 0.1 190 5.8
2008-02-21 08:07:16 51°13.664 2°55.956 119.8 0.1 194 5.8
2008-02-21 08:07:21 51°13.664 2°55.956 118.9 0.1 212 5.8
2008-02-21 08:07:26 51°13.664 2°55.956 118 0.1 210 5.7
2008-02-21 08:07:31 51°13.663 2°55.956 117.1 0.1 204 5.7
2008-02-21 08:07:36 51°13.663 2°55.956 116.1 0.1 197 -999
2008-02-21 08:07:41 51°13.663 2°55.956 115.5 0.1 188 5.7
2008-02-21 08:07:45 51°13.663 2°55.955 114.8 0.1 199 5.7
2008-02-21 08:07:50 51°13.663 2°55.956 114.2 -999 167 5.7
2008-02-21 08:07:55 51°13.663 2°55.955 113.6 0.1 200 5.7
2008-02-21 08:08:00 51°13.663 2°55.955 113 -999 224 5.7
2008-02-21 08:08:05 51°13.663 2°55.955 112.2 -999 191 5.8
2008-02-21 08:08:10 51°13.663 2°55.955 111.7 0.1 198 5.8
2008-02-21 08:08:14 51°13.663 2°55.955 111 0.1 186 5.8
2008-02-21 08:08:20 51°13.663 2°55.955 110.2 0.1 203 5.8
2008-02-21 08:08:25 51°13.663 2°55.955 109.5 0.1 200 5.7
2008-02-21 08:08:29 51°13.663 2°55.955 108.8 0.1 200 5.8
2008-02-21 08:08:34 51°13.662 2°55.955 108 0.1 204 5.7
2008-02-21 08:08:39 51°13.663 2°55.955 107.3 0.1 255 5.8
2008-02-21 08:08:44 51°13.663 2°55.955 106.6 0.2 292 5.8
2008-02-21 08:08:49 51°13.663 2°55.953 106.3 0.6 285 5.7
2008-02-21 08:08:53 51°13.663 2°55.952 106.1 1.1 290 5.7
2008-02-21 08:08:58 51°13.664 2°55.949 106 1.6 286 5.6
2008-02-21 08:09:04 51°13.665 2°55.943 106 2.2 290 5.7
2008-02-21 08:09:09 51°13.666 2°55.938 106 2.7 288 -999
2008-02-21 08:09:14 51°13.668 2°55.931 106.1 3.1 291 -999
2008-02-21 08:09:20 51°13.67 2°55.923 106 3.5 290 -999
2008-02-21 08:09:26 51°13.672 2°55.914 105.9 3.6 289 -999
2008-02-21 08:09:32 51°13.674 2°55.904 106.2 3.8 289 -999
2008-02-21 08:09:37 51°13.676 2°55.896 106.5 4 290 -999
2008-02-21 08:09:42 51°13.678 2°55.888 106.8 4.1 290 -999
2008-02-21 08:09:47 51°13.68 2°55.879 107.2 4.2 289 -999
2008-02-21 08:09:52 51°13.682 2°55.87 107.3 4.2 289 -999
2008-02-21 08:09:57 51°13.683 2°55.862 107.3 4 287 -999
2008-02-21 08:10:02 51°13.685 2°55.854 107.3 3.8 287 -999
2008-02-21 08:10:07 51°13.686 2°55.846 107.1 3.7 286 -999
2008-02-21 08:10:12 51°13.688 2°55.838 106.9 3.5 286 -999
2008-02-21 08:10:17 51°13.689 2°55.831 106.6 3.4 286 -999
2008-02-21 08:10:22 51°13.69 2°55.824 106.1 3.3 286 -999
2008-02-21 08:10:27 51°13.691 2°55.817 105.6 3.2 285 4.7
2008-02-21 08:10:32 51°13.692 2°55.81 105.4 3.1 285 8.7
2008-02-21 08:10:37 51°13.694 2°55.804 105.1 3.2 285 9
2008-02-21 08:10:42 51°13.695 2°55.797 105 3.1 285 9.3
2008-02-21 08:10:46 51°13.696 2°55.792 104.9 3 287 9.6
2008-02-21 08:10:51 51°13.697 2°55.786 104.9 2.9 286 10.1
2008-02-21 08:10:56 51°13.698 2°55.78 105.1 2.5 287 4.7
2008-02-21 08:11:02 51°13.699 2°55.776 105.8 1.8 287 -999
2008-02-21 08:11:07 51°13.7 2°55.773 104.9 1.1 291 -999
2008-02-21 08:11:12 51°13.7 2°55.772 102.8 0.6 304 11.4
2008-02-21 08:11:17 51°13.701 2°55.772 99.4 0.4 4 11.5
2008-02-21 08:11:22 51°13.701 2°55.773 95 0.6 59 11.4
2008-02-21 08:11:27 51°13.702 2°55.775 90.9 0.8 69 11.4
2008-02-21 08:11:32 51°13.702 2°55.776 86.4 0.8 55 11.3
2008-02-21 08:11:37 51°13.703 2°55.777 80.9 0.5 57 11.2
2008-02-21 08:11:41 51°13.703 2°55.778 77.2 0.3 38 11.1
2008-02-21 08:11:46 51°13.704 2°55.778 74.3 0.3 343 11.1
2008-02-21 08:11:51 51°13.704 2°55.777 71.4 0.4 286 11.1
2008-02-21 08:11:56 51°13.704 2°55.775 69 0.7 275 11.2
2008-02-21 08:12:01 51°13.704 2°55.773 67.1 0.9 266 11.3
2008-02-21 08:12:05 51°13.704 2°55.771 65.8 1.1 266 11.5
2008-02-21 08:12:10 51°13.704 2°55.769 64.1 1.1 260 11.6
2008-02-21 08:12:16 51°13.703 2°55.766 62.8 1.3 262 -999
2008-02-21 08:12:21 51°13.703 2°55.763 61.5 1.3 258 6.1
2008-02-21 08:12:26 51°13.702 2°55.759 60.1 1.4 257 -999
2008-02-21 08:12:32 51°13.701 2°55.756 58.7 1.5 252 -999
2008-02-21 08:12:37 51°13.701 2°55.753 57.2 1.4 254 -999
2008-02-21 08:12:42 51°13.701 2°55.75 56.4 1.2 255 -999
2008-02-21 08:12:47 51°13.701 2°55.748 55.2 0.9 263 -999
2008-02-21 08:12:52 51°13.701 2°55.747 53.7 0.5 280 -999
2008-02-21 08:12:57 51°13.701 2°55.747 51.4 0.4 318 -999
2008-02-21 08:13:02 51°13.702 2°55.746 48.1 0.5 2 -999
2008-02-21 08:13:07 51°13.703 2°55.747 44.5 0.7 10 -999
2008-02-21 08:13:12 51°13.704 2°55.747 40.6 0.9 17 -999
2008-02-21 08:13:17 51°13.706 2°55.748 36.5 1.2 15 -999
2008-02-21 08:13:22 51°13.708 2°55.75 32.5 1.5 25 -999
2008-02-21 08:13:27 51°13.71 2°55.75 27.4 1.4 10 -999
2008-02-21 08:13:32 51°13.711 2°55.751 23 1.2 15 -999
2008-02-21 08:13:37 51°13.712 2°55.751 19.7 0.7 3 -999
2008-02-21 08:13:42 51°13.713 2°55.751 15.7 0.2 325 -999
2008-02-21 08:13:47 51°13.712 2°55.751 11.9 0.5 218 11.5
2008-02-21 08:13:52 51°13.71 2°55.75 9.1 0.7 201 -999
2008-02-21 08:13:57 51°13.709 2°55.749 6.7 1.1 196 11.4
2008-02-21 08:14:02 51°13.707 2°55.749 4.5 1.4 194 11.5
2008-02-21 08:14:07 51°13.705 2°55.748 2.1 1.3 190 11.5
2008-02-21 08:14:12 51°13.704 2°55.747 359.8 1.1 194 11.5
2008-02-21 08:14:17 51°13.704 2°55.747 357.5 0.7 200 -999
2008-02-21 08:14:22 51°13.704 2°55.746 355.1 0.4 272 -999
2008-02-21 08:14:27 51°13.706 2°55.745 351 1 332 -999
2008-02-21 08:14:32 51°13.708 2°55.743 344.8 2.2 332 -999
2008-02-21 08:14:37 51°13.712 2°55.74 338.9 2.9 332 -999
2008-02-21 08:14:42 51°13.717 2°55.735 334.6 3.8 329 -999
2008-02-21 08:14:47 51°13.723 2°55.73 333 4.6 330 -999
2008-02-21 08:14:52 51°13.729 2°55.724 332 5.5 328 11.2
2008-02-21 08:14:57 51°13.737 2°55.717 331.2 6.1 331 10.7
2008-02-21 08:15:02 51°13.745 2°55.71 331.4 6.7 331 10.3
2008-02-21 08:15:06 51°13.752 2°55.704 331.9 7.2 331 10.1
2008-02-21 08:15:11 51°13.761 2°55.696 332 7.4 331 10
2008-02-21 08:15:16 51°13.77 2°55.688 332.1 7.6 332 10
2008-02-21 08:15:21 51°13.78 2°55.68 332.4 7.8 332 9.8
2008-02-21 08:15:26 51°13.789 2°55.672 332.7 7.8 333 9.3
2008-02-21 08:15:31 51°13.799 2°55.665 333.2 7.8 334 9.8
2008-02-21 08:15:35 51°13.807 2°55.659 334.5 7.9 334 9.7
2008-02-21 08:15:40 51°13.816 2°55.651 334.6 7.9 334 9.5
2008-02-21 08:15:45 51°13.827 2°55.644 334.5 8 335 9.3
2008-02-21 08:15:50 51°13.836 2°55.636 334.5 7.9 334 9.6
2008-02-21 08:15:55 51°13.846 2°55.629 334.5 7.7 335 9.9
2008-02-21 08:16:00 51°13.856 2°55.622 334.5 7.5 334 10
2008-02-21 08:16:05 51°13.865 2°55.615 334.4 7.3 334 9.9
2008-02-21 08:16:09 51°13.872 2°55.609 334.3 7.2 334 10
2008-02-21 08:16:14 51°13.881 2°55.602 334.3 7 334 10
2008-02-21 08:16:19 51°13.89 2°55.596 334.3 6.9 334 10
2008-02-21 08:16:24 51°13.899 2°55.589 334.3 6.7 334 10.1
2008-02-21 08:16:29 51°13.907 2°55.583 334.1 6.6 334 10.3
2008-02-21 08:16:34 51°13.915 2°55.576 333.9 6.6 333 10.4
2008-02-21 08:16:38 51°13.922 2°55.571 333.9 6.5 334 10.3
2008-02-21 08:16:43 51°13.93 2°55.565 334 6.5 333 10.4
2008-02-21 08:16:49 51°13.939 2°55.557 334.4 6.5 334 10.4
2008-02-21 08:16:53 51°13.946 2°55.552 334.5 6.5 334 10.5
2008-02-21 08:16:58 51°13.954 2°55.546 334.4 6.5 334 10.2
2008-02-21 08:17:03 51°13.962 2°55.54 334.5 6.5 335 10
2008-02-21 08:17:08 51°13.97 2°55.534 335 6.5 335 10.4
2008-02-21 08:17:14 51°13.979 2°55.526 335.1 6.3 335 10.4
2008-02-21 08:17:18 51°13.986 2°55.522 335 6.2 335 10.3
2008-02-21 08:17:23 51°13.993 2°55.516 334.6 6 334 10.4
2008-02-21 08:17:28 51°14.001 2°55.51 334.5 5.9 334 10.4
2008-02-21 08:17:33 51°14.008 2°55.505 334.7 5.8 335 10.4
2008-02-21 08:17:39 51°14.017 2°55.499 335.2 5.7 336 10.4
2008-02-21 08:17:44 51°14.025 2°55.494 335.7 5.6 335 -999
2008-02-21 08:17:49 51°14.031 2°55.489 335.9 5.5 335 -999
2008-02-21 08:17:54 51°14.038 2°55.484 335.8 5.5 335 10.5
2008-02-21 08:18:00 51°14.046 2°55.478 335.2 5.5 335 -999
2008-02-21 08:18:06 51°14.054 2°55.471 335 5.5 335 -999
2008-02-21 08:18:12 51°14.062 2°55.465 335 5.5 335 -999
2008-02-21 08:18:17 51°14.069 2°55.459 335.2 5.6 334 -999
2008-02-21 08:18:22 51°14.076 2°55.454 334.7 5.8 334 -999
2008-02-21 08:18:27 51°14.084 2°55.447 334.2 6.2 333 -999
2008-02-21 08:18:32 51°14.092 2°55.441 334 6.6 333 -999
2008-02-21 08:18:37 51°14.101 2°55.434 334.1 6.9 333 -999
2008-02-21 08:18:42 51°14.11 2°55.427 334.4 7.3 333 -999
2008-02-21 08:18:47 51°14.12 2°55.419 334.1 7.7 333 10.3
2008-02-21 08:18:52 51°14.13 2°55.411 333.8 8.1 333 10.1
2008-02-21 08:18:57 51°14.14 2°55.403 333.8 8.4 332 10.3
2008-02-21 08:19:02 51°14.151 2°55.394 333.2 8.7 331 10.4
2008-02-21 08:19:07 51°14.162 2°55.384 332.6 9 331 -999
2008-02-21 08:19:12 51°14.173 2°55.373 331.3 9.4 328 -999
2008-02-21 08:19:17 51°14.184 2°55.361 328.8 9.7 325 10.6
2008-02-21 08:19:22 51°14.195 2°55.349 327.1 9.7 325 10.7
2008-02-21 08:19:27 51°14.206 2°55.336 326.6 10 324 -999
2008-02-21 08:19:32 51°14.217 2°55.322 324.6 10.2 322 -999
2008-02-21 08:19:37 51°14.229 2°55.307 322.6 10.3 321 -999
2008-02-21 08:19:42 51°14.239 2°55.292 321.5 10.4 318 -999
2008-02-21 08:19:47 51°14.25 2°55.276 319.8 10.4 316 10.6
2008-02-21 08:19:52 51°14.26 2°55.26 317.8 10.5 315 9.8
2008-02-21 08:19:57 51°14.27 2°55.243 316.3 10.5 313 9.7
2008-02-21 08:20:02 51°14.28 2°55.226 314.8 10.5 314 9.8
2008-02-21 08:20:06 51°14.288 2°55.213 314.5 10.6 313 9.8
2008-02-21 08:20:11 51°14.298 2°55.195 313.7 10.7 311 9.6
2008-02-21 08:20:16 51°14.307 2°55.177 312.2 10.7 311 10.3
2008-02-21 08:20:21 51°14.317 2°55.159 311.5 10.7 310 10.2
2008-02-21 08:20:26 51°14.326 2°55.14 310.5 10.9 309 10.6
2008-02-21 08:20:30 51°14.334 2°55.125 309.4 11 309 10.7
2008-02-21 08:20:35 51°14.343 2°55.106 308.8 11.2 307 10.7
2008-02-21 08:20:40 51°14.353 2°55.085 307.4 11.4 306 10.2
2008-02-21 08:20:45 51°14.362 2°55.065 306.2 11.5 305 10.3
2008-02-21 08:20:50 51°14.371 2°55.043 305.5 11.6 305 10.3
2008-02-21 08:20:55 51°14.38 2°55.022 305.9 11.8 306 9.7
2008-02-21 08:21:00 51°14.389 2°55 306.2 11.9 305 9.7
2008-02-21 08:21:05 51°14.399 2°54.978 305.8 12 302 9.7
2008-02-21 08:21:09 51°14.406 2°54.96 304.6 12.2 300 9.6
2008-02-21 08:21:14 51°14.414 2°54.936 302.7 12.3 299 9.6
2008-02-21 08:21:19 51°14.422 2°54.912 301.5 12.4 299 9.8
2008-02-21 08:21:24 51°14.431 2°54.888 302 12.5 301 9.8
2008-02-21 08:21:29 51°14.439 2°54.864 302.5 12.6 300 9.8
2008-02-21 08:21:34 51°14.448 2°54.84 302.4 12.7 300 9.9
2008-02-21 08:21:38 51°14.456 2°54.821 303.3 12.7 302 9.9
2008-02-21 08:21:43 51°14.465 2°54.797 304 12.7 302 9.9
2008-02-21 08:21:49 51°14.476 2°54.768 304 12.7 302 9.8
2008-02-21 08:21:54 51°14.485 2°54.744 304.2 12.7 301 9.8
2008-02-21 08:21:58 51°14.492 2°54.724 303.6 12.8 300 9.7
2008-02-21 08:22:03 51°14.5 2°54.699 302.2 12.7 298 9.7
2008-02-21 08:22:09 51°14.509 2°54.669 300.8 12.7 296 9.7
2008-02-21 08:22:13 51°14.515 2°54.648 297.9 12.7 291 9.7
2008-02-21 08:22:18 51°14.52 2°54.621 293.9 12.7 289 9.6
2008-02-21 08:22:24 51°14.526 2°54.589 291 12.7 286 9.6
2008-02-21 08:22:29 51°14.531 2°54.562 288.7 12.7 284 9.6
2008-02-21 08:22:33 51°14.533 2°54.54 286.3 12.6 280 9.6
2008-02-21 08:22:38 51°14.535 2°54.512 282.1 12.7 276 9.7
2008-02-21 08:22:44 51°14.535 2°54.479 277 12.6 270 9.7
2008-02-21 08:22:49 51°14.534 2°54.451 272.1 12.6 267 9.6
2008-02-21 08:22:53 51°14.532 2°54.429 267.7 12.6 263 9.6
2008-02-21 08:22:58 51°14.529 2°54.401 263.5 12.6 259 9.7
2008-02-21 08:23:04 51°14.523 2°54.369 259.2 12.6 255 9.8
2008-02-21 08:23:09 51°14.518 2°54.343 255.4 12.6 252 9.8
2008-02-21 08:23:14 51°14.511 2°54.317 251.7 12.6 248 9.9
2008-02-21 08:23:18 51°14.505 2°54.297 247.4 12.6 244 10
2008-02-21 08:23:23 51°14.496 2°54.273 243.7 12.6 240 10
2008-02-21 08:23:29 51°14.486 2°54.244 240.1 12.7 239 9.9
2008-02-21 08:23:34 51°14.476 2°54.22 238 12.8 238 9.5
2008-02-21 08:23:38 51°14.469 2°54.2 237.6 12.8 238 9.2
2008-02-21 08:23:43 51°14.459 2°54.177 237.2 12.7 239 9
2008-02-21 08:23:49 51°14.448 2°54.148 238 12.7 239 8.8
2008-02-21 08:23:53 51°14.441 2°54.128 238.4 12.8 239 8.8
2008-02-21 08:23:58 51°14.432 2°54.104 238.6 12.7 240 8.8
2008-02-21 08:24:03 51°14.424 2°54.079 240.1 12.8 243 8.8
2008-02-21 08:24:09 51°14.414 2°54.049 241.5 12.8 241 8.8
2008-02-21 08:24:14 51°14.406 2°54.023 242.2 12.9 245 8.8
2008-02-21 08:24:18 51°14.4 2°54.003 243.5 12.8 244 8.8
2008-02-21 08:24:23 51°14.393 2°53.977 245 12.9 247 8.8
2008-02-21 08:24:29 51°14.384 2°53.946 246.3 12.9 246 8.8
2008-02-21 08:24:34 51°14.377 2°53.919 246.6 12.9 247 8.9
2008-02-21 08:24:39 51°14.37 2°53.893 247.3 12.9 247 8.8
2008-02-21 08:24:44 51°14.364 2°53.866 247.7 12.9 248 8.8
2008-02-21 08:24:48 51°14.358 2°53.845 247.9 12.9 247 8.9
2008-02-21 08:24:53 51°14.351 2°53.819 247.4 13 247 8.8
2008-02-21 08:24:58 51°14.344 2°53.793 247.4 12.9 247 9
2008-02-21 08:25:04 51°14.336 2°53.761 247.4 13 247 8.8
2008-02-21 08:25:09 51°14.328 2°53.734 247.4 13 247 8.9
2008-02-21 08:25:13 51°14.323 2°53.713 247.4 13 247 8.9
2008-02-21 08:25:18 51°14.316 2°53.687 247 13 246 8.9
2008-02-21 08:25:24 51°14.306 2°53.656 246 13 245 8.9
2008-02-21 08:25:29 51°14.299 2°53.63 245.6 12.9 245 8.9
2008-02-21 08:25:34 51°14.291 2°53.604 244.8 13 245 8.9
2008-02-21 08:25:38 51°14.285 2°53.583 245.7 13 247 8.9
2008-02-21 08:25:43 51°14.278 2°53.557 246.4 13 246 9
2008-02-21 08:25:49 51°14.27 2°53.525 246.6 13 247 9
2008-02-21 08:25:54 51°14.262 2°53.499 247.2 13 247 8.9
2008-02-21 08:25:58 51°14.257 2°53.477 247.6 13 248 9.1
2008-02-21 08:26:04 51°14.249 2°53.445 248.8 13 249 9.1
2008-02-21 08:26:09 51°14.243 2°53.418 249.4 13 249 9.1
2008-02-21 08:26:14 51°14.236 2°53.391 249.8 13 249 9.1
2008-02-21 08:26:18 51°14.231 2°53.37 249.8 13 249 9
2008-02-21 08:26:23 51°14.225 2°53.343 249.5 13 249 9.1
2008-02-21 08:26:28 51°14.218 2°53.316 249.2 13 249 9.3
2008-02-21 08:26:34 51°14.21 2°53.284 249.4 13 249 9.3
2008-02-21 08:26:38 51°14.205 2°53.262 248.8 13 247 9.4
2008-02-21 08:26:43 51°14.197 2°53.236 247.7 13.1 247 9.4
2008-02-21 08:26:49 51°14.189 2°53.204 247.4 13.1 247 9.4
2008-02-21 08:26:53 51°14.183 2°53.183 246.9 13.1 246 9.4
2008-02-21 08:26:59 51°14.174 2°53.151 246.9 13 247 9.5
2008-02-21 08:27:03 51°14.168 2°53.13 246.8 13.1 246 9.6
2008-02-21 08:27:09 51°14.16 2°53.098 247 13.1 247 9.6
2008-02-21 08:27:13 51°14.154 2°53.077 247.4 13.1 246 9.7
2008-02-21 08:27:18 51°14.147 2°53.051 247.3 13.1 247 9.8
2008-02-21 08:27:24 51°14.138 2°53.019 247.3 13.1 246 9.8
2008-02-21 08:27:28 51°14.133 2°52.998 247.2 13.1 248 9.8
2008-02-21 08:27:33 51°14.125 2°52.971 247.7 13.1 247 9.9
2008-02-21 08:27:38 51°14.119 2°52.944 248.3 13.1 248 9.9
2008-02-21 08:27:44 51°14.111 2°52.912 249 13.1 248 9.8
2008-02-21 08:27:49 51°14.104 2°52.885 249.5 13.1 249 9.8
2008-02-21 08:27:53 51°14.098 2°52.864 248.9 13.1 247 9.9
2008-02-21 08:27:58 51°14.091 2°52.837 248.1 13.1 247 9.9
2008-02-21 08:28:03 51°14.084 2°52.81 247.4 13.1 246 9.9
2008-02-21 08:28:09 51°14.075 2°52.779 246.6 13.1 245 9.9
2008-02-21 08:28:13 51°14.069 2°52.758 246 13.1 245 9.9
2008-02-21 08:28:18 51°14.061 2°52.732 245.4 13.1 245 9.9
2008-02-21 08:28:23 51°14.053 2°52.706 245.2 13.1 244 10
2008-02-21 08:28:29 51°14.044 2°52.674 245.3 13.1 245 9.9
2008-02-21 08:28:33 51°14.038 2°52.653 245.2 13.1 244 10
2008-02-21 08:28:38 51°14.03 2°52.627 245.2 13.1 245 10.1
2008-02-21 08:28:44 51°14.021 2°52.596 245.4 13 244 9.9
2008-02-21 08:28:49 51°14.013 2°52.57 245.2 13.1 244 9.9
2008-02-21 08:28:54 51°14.005 2°52.544 245.2 13.1 244 9.9
2008-02-21 08:28:58 51°13.998 2°52.524 243.2 13 241 9.9
2008-02-21 08:29:04 51°13.988 2°52.493 242.4 13.1 243 9.9
2008-02-21 08:29:09 51°13.979 2°52.468 242.2 13.1 241 9.9
2008-02-21 08:29:13 51°13.972 2°52.448 241.6 13.1 241 9.9
2008-02-21 08:29:18 51°13.963 2°52.422 241.4 13.1 240 10.2
2008-02-21 08:29:23 51°13.954 2°52.398 241.1 13.1 240 10
2008-02-21 08:29:28 51°13.945 2°52.373 241.2 13 240 10.1
2008-02-21 08:29:33 51°13.935 2°52.349 238.7 13 236 9.9
2008-02-21 08:29:38 51°13.924 2°52.325 236 13 236 10
2008-02-21 08:29:43 51°13.914 2°52.301 235.8 13 234 10
2008-02-21 08:29:49 51°13.901 2°52.273 234.3 13.1 234 9.9
2008-02-21 08:29:53 51°13.893 2°52.255 234.1 13 234 10
2008-02-21 08:29:58 51°13.881 2°52.232 233 13.1 232 10
2008-02-21 08:30:03 51°13.871 2°52.208 233.4 13.1 235 10
2008-02-21 08:30:08 51°13.86 2°52.185 234.1 13 235 10
2008-02-21 08:30:13 51°13.85 2°52.161 234.8 13.1 236 10
2008-02-21 08:30:18 51°13.84 2°52.137 235.7 13.1 236 10
2008-02-21 08:30:23 51°13.831 2°52.112 237.2 13.1 238 10
2008-02-21 08:30:28 51°13.821 2°52.088 237.9 13.1 238 10
2008-02-21 08:30:33 51°13.812 2°52.063 238.7 13.1 240 10
2008-02-21 08:30:38 51°13.802 2°52.038 239.9 13.1 239 10
2008-02-21 08:30:43 51°13.793 2°52.013 240 13.1 240 10
2008-02-21 08:30:48 51°13.784 2°51.988 240.6 13.1 240 10
2008-02-21 08:30:53 51°13.775 2°51.963 240.7 13.2 240 10
2008-02-21 08:30:58 51°13.766 2°51.938 240.5 13.2 240 10
2008-02-21 08:31:03 51°13.757 2°51.912 240.4 13.1 240 10.1
2008-02-21 08:31:08 51°13.748 2°51.887 240.3 13.2 239 10.1
2008-02-21 08:31:13 51°13.738 2°51.863 239.6 13.1 239 10.1
2008-02-21 08:31:18 51°13.729 2°51.838 238.7 13.1 238 10
2008-02-21 08:31:23 51°13.719 2°51.813 238.8 13.1 239 10.1
2008-02-21 08:31:28 51°13.71 2°51.789 238.3 13.1 238 10.1
2008-02-21 08:31:33 51°13.7 2°51.764 238.3 13.1 238 10.1
2008-02-21 08:31:38 51°13.69 2°51.74 237.8 13.2 238 10.1
2008-02-21 08:31:43 51°13.681 2°51.715 238.6 13.1 239 10.1
2008-02-21 08:31:48 51°13.671 2°51.69 238.5 13.1 238 10.2
2008-02-21 08:31:53 51°13.662 2°51.666 238.4 13.1 238 10.1
2008-02-21 08:31:58 51°13.652 2°51.641 238.7 13.1 239 10.1
2008-02-21 08:32:03 51°13.643 2°51.616 239.3 13.1 239 10.2
2008-02-21 08:32:08 51°13.634 2°51.591 239.7 13.1 240 10.2
2008-02-21 08:32:13 51°13.625 2°51.566 240 13.1 240 10.2
2008-02-21 08:32:18 51°13.616 2°51.541 240.5 13.1 241 10.2
2008-02-21 08:32:23 51°13.607 2°51.516 240.9 13.1 241 10.2
2008-02-21 08:32:28 51°13.598 2°51.49 241.4 13.1 242 10.2
2008-02-21 08:32:33 51°13.59 2°51.465 241.6 13 241 10.2
2008-02-21 08:32:38 51°13.581 2°51.44 241.4 13 241 10.2
2008-02-21 08:32:43 51°13.572 2°51.415 240.8 13.1 240 10.3
2008-02-21 08:32:48 51°13.563 2°51.39 240 13 239 10.3
2008-02-21 08:32:53 51°13.553 2°51.366 239.6 13.1 240 10.3
2008-02-21 08:32:58 51°13.544 2°51.341 239.7 13 239 10.3
2008-02-21 08:33:03 51°13.535 2°51.316 239.4 13.1 239 10.4
2008-02-21 08:33:08 51°13.526 2°51.291 239.5 13 240 10.4
2008-02-21 08:33:13 51°13.517 2°51.266 239.8 13 240 10.4
2008-02-21 08:33:18 51°13.507 2°51.241 239.9 13 239 10.4
2008-02-21 08:33:23 51°13.498 2°51.217 239.7 13 240 10.4
2008-02-21 08:33:28 51°13.489 2°51.192 239.8 13.1 240 10.4
2008-02-21 08:33:33 51°13.48 2°51.167 239.8 13 239 10.4
2008-02-21 08:33:38 51°13.471 2°51.142 239.6 13.1 240 10.4
2008-02-21 08:33:43 51°13.462 2°51.117 239.6 13.1 239 10.4
2008-02-21 08:33:48 51°13.453 2°51.092 240 13.1 241 10.4
2008-02-21 08:33:53 51°13.443 2°51.067 240.2 13 240 10.4
2008-02-21 08:33:58 51°13.435 2°51.042 240.1 13.1 240 10.5
2008-02-21 08:34:03 51°13.425 2°51.017 239.6 13 240 10.4
2008-02-21 08:34:08 51°13.416 2°50.993 239.9 13 240 10.5
2008-02-21 08:34:13 51°13.407 2°50.968 239.8 13 239 10.5
2008-02-21 08:34:18 51°13.398 2°50.943 240 13 241 10.5
2008-02-21 08:34:23 51°13.389 2°50.918 239.8 13.1 239 10.5
2008-02-21 08:34:28 51°13.38 2°50.893 239.8 13.1 240 10.5
2008-02-21 08:34:33 51°13.371 2°50.868 239.6 13.1 239 10.5
2008-02-21 08:34:38 51°13.361 2°50.843 239.4 13.1 240 10.5
2008-02-21 08:34:43 51°13.352 2°50.818 239.7 13.1 240 10.6
2008-02-21 08:34:48 51°13.343 2°50.793 240.1 13.1 239 10.5
2008-02-21 08:34:53 51°13.334 2°50.768 239.7 13.1 241 10.6
2008-02-21 08:34:58 51°13.325 2°50.743 240.1 13.1 240 10.5
2008-02-21 08:35:03 51°13.316 2°50.718 240 13.2 240 10.6
2008-02-21 08:35:08 51°13.307 2°50.693 240.3 13.1 240 10.6
2008-02-21 08:35:13 51°13.298 2°50.668 240.1 13.1 240 10.6
2008-02-21 08:35:18 51°13.288 2°50.643 239.6 13.1 239 10.6
2008-02-21 08:35:23 51°13.28 2°50.618 239.4 13.1 240 10.7
2008-02-21 08:35:28 51°13.27 2°50.592 239.7 13.1 240 10.7
2008-02-21 08:35:33 51°13.261 2°50.567 239.8 13.1 241 10.6
2008-02-21 08:35:38 51°13.252 2°50.542 240.1 13.2 241 10.7
2008-02-21 08:35:43 51°13.244 2°50.517 240.6 13.1 241 10.6
2008-02-21 08:35:48 51°13.234 2°50.491 240.3 13.2 241 10.7
2008-02-21 08:35:53 51°13.226 2°50.466 240.7 13.1 242 10.7
2008-02-21 08:35:58 51°13.217 2°50.44 240.6 13.2 241 10.7
2008-02-21 08:36:03 51°13.209 2°50.414 241.5 13.3 243 10.7
2008-02-21 08:36:08 51°13.2 2°50.388 241.6 13.3 242 10.7
2008-02-21 08:36:13 51°13.192 2°50.362 241.9 13.3 243 10.8
2008-02-21 08:36:18 51°13.183 2°50.336 241.6 13.3 241 10.8
2008-02-21 08:36:23 51°13.174 2°50.31 240.5 13.4 242 10.8
2008-02-21 08:36:28 51°13.165 2°50.285 240.5 13.3 240 10.8
2008-02-21 08:36:33 51°13.156 2°50.259 239.8 13.3 240 10.7
2008-02-21 08:36:38 51°13.146 2°50.234 239.3 13.3 240 10.8
2008-02-21 08:36:43 51°13.138 2°50.208 239.8 13.4 241 10.8
2008-02-21 08:36:48 51°13.128 2°50.182 240 13.3 240 10.8
2008-02-21 08:36:53 51°13.12 2°50.157 240.1 13.3 241 10.9
2008-02-21 08:36:58 51°13.11 2°50.131 240.2 13.4 241 10.8
2008-02-21 08:37:03 51°13.101 2°50.105 240 13.4 241 10.9
2008-02-21 08:37:08 51°13.092 2°50.079 239.9 13.4 241 10.9
2008-02-21 08:37:13 51°13.083 2°50.053 240.5 13.4 242 10.9
2008-02-21 08:37:18 51°13.074 2°50.027 241 13.4 241 10.9
2008-02-21 08:37:23 51°13.066 2°50.001 240.7 13.4 241 10.9
2008-02-21 08:37:28 51°13.057 2°49.975 240.8 13.4 242 10.9
2008-02-21 08:37:33 51°13.048 2°49.949 240.8 13.4 241 10.9
2008-02-21 08:37:38 51°13.039 2°49.923 240.6 13.4 242 10.9
2008-02-21 08:37:43 51°13.03 2°49.897 240.8 13.4 242 10.9
2008-02-21 08:37:48 51°13.022 2°49.87 241.2 13.5 242 11
2008-02-21 08:37:53 51°13.013 2°49.844 241.4 13.4 242 11
2008-02-21 08:37:58 51°13.004 2°49.818 241.2 13.5 242 11
2008-02-21 08:38:03 51°12.995 2°49.792 240.9 13.4 241 11
2008-02-21 08:38:08 51°12.986 2°49.766 240.1 13.4 241 11
2008-02-21 08:38:13 51°12.977 2°49.74 240 13.4 241 11
2008-02-21 08:38:18 51°12.968 2°49.715 239.4 13.5 240 11.1
2008-02-21 08:38:23 51°12.959 2°49.689 239.4 13.5 241 11.1
2008-02-21 08:38:28 51°12.95 2°49.663 239.8 13.4 241 11.1
2008-02-21 08:38:33 51°12.941 2°49.637 240.1 13.4 241 11.2
2008-02-21 08:38:38 51°12.932 2°49.611 240 13.5 240 11.1
2008-02-21 08:38:43 51°12.922 2°49.585 239.8 13.5 241 11.1
2008-02-21 08:38:48 51°12.913 2°49.559 239.7 13.4 241 11.1
2008-02-21 08:38:53 51°12.904 2°49.533 240.1 13.5 242 11.1
2008-02-21 08:38:58 51°12.896 2°49.507 240.7 13.5 242 11.2
2008-02-21 08:39:03 51°12.887 2°49.48 240.9 13.5 242 11.2
2008-02-21 08:39:08 51°12.878 2°49.454 241.1 13.5 243 11.2
2008-02-21 08:39:13 51°12.869 2°49.428 241.5 13.5 242 11.2
2008-02-21 08:39:18 51°12.861 2°49.401 241.3 13.5 242 11.2
2008-02-21 08:39:23 51°12.852 2°49.375 241.6 13.5 243 11.3
2008-02-21 08:39:28 51°12.843 2°49.348 241.6 13.5 243 11.3
2008-02-21 08:39:33 51°12.835 2°49.322 241.5 13.5 242 11.2
2008-02-21 08:39:38 51°12.826 2°49.296 241.1 13.5 242 11.3
2008-02-21 08:39:43 51°12.817 2°49.27 240.6 13.5 241 11.4
2008-02-21 08:39:48 51°12.808 2°49.244 240.1 13.5 242 11.4
2008-02-21 08:39:53 51°12.798 2°49.218 239.9 13.4 240 11.3
2008-02-21 08:39:58 51°12.789 2°49.191 239.4 13.5 241 11.3
2008-02-21 08:40:03 51°12.78 2°49.166 239.6 13.5 240 11.3
2008-02-21 08:40:08 51°12.771 2°49.139 239.6 13.5 241 11.4
2008-02-21 08:40:13 51°12.762 2°49.113 239.6 13.5 240 11.3
2008-02-21 08:40:18 51°12.753 2°49.087 239.4 13.5 241 11.4
2008-02-21 08:40:23 51°12.744 2°49.061 239.7 13.5 240 11.4
2008-02-21 08:40:28 51°12.735 2°49.035 239.4 13.6 242 11.4
2008-02-21 08:40:33 51°12.726 2°49.009 240 13.5 241 11.4
2008-02-21 08:40:38 51°12.717 2°48.982 240.7 13.6 243 11.5
2008-02-21 08:40:43 51°12.708 2°48.956 241.1 13.5 242 11.4
2008-02-21 08:40:48 51°12.7 2°48.929 241.4 13.5 243 11.4
2008-02-21 08:40:53 51°12.691 2°48.903 241.6 13.5 242 11.4
2008-02-21 08:40:58 51°12.682 2°48.877 241.1 13.6 242 11.4
2008-02-21 08:41:03 51°12.673 2°48.85 241 13.5 242 11.5
2008-02-21 08:41:08 51°12.665 2°48.824 241.3 13.5 243 11.5
2008-02-21 08:41:13 51°12.656 2°48.797 241.3 13.6 242 11.5
2008-02-21 08:41:18 51°12.647 2°48.771 241.1 13.6 243 11.6
2008-02-21 08:41:23 51°12.638 2°48.744 241.1 13.5 241 11.6
2008-02-21 08:41:28 51°12.629 2°48.718 240.6 13.6 243 11.6
2008-02-21 08:41:33 51°12.621 2°48.691 241.1 13.6 243 11.6
2008-02-21 08:41:38 51°12.612 2°48.665 241.4 13.6 242 11.6
2008-02-21 08:41:43 51°12.603 2°48.638 241 13.6 242 11.6
2008-02-21 08:41:48 51°12.594 2°48.612 241.3 13.6 242 11.6
2008-02-21 08:41:53 51°12.585 2°48.585 240.2 13.6 241 11.6
2008-02-21 08:41:58 51°12.576 2°48.559 240.2 13.6 242 11.7
2008-02-21 08:42:03 51°12.567 2°48.533 239.7 13.5 240 11.7
2008-02-21 08:42:08 51°12.558 2°48.506 239.4 13.6 242 11.7
2008-02-21 08:42:13 51°12.549 2°48.48 239.8 13.5 241 11.7
2008-02-21 08:42:18 51°12.54 2°48.454 239.6 13.6 241 11.8
2008-02-21 08:42:23 51°12.531 2°48.428 239.6 13.6 242 11.7
2008-02-21 08:42:28 51°12.522 2°48.402 239.8 13.5 241 11.7
2008-02-21 08:42:33 51°12.513 2°48.376 239.7 13.6 241 11.8
2008-02-21 08:42:38 51°12.504 2°48.35 239.8 13.5 241 11.8
2008-02-21 08:42:43 51°12.495 2°48.323 239.8 13.5 241 11.7
2008-02-21 08:42:48 51°12.486 2°48.297 239.7 13.6 241 11.8
2008-02-21 08:42:53 51°12.477 2°48.27 240.4 13.7 242 11.8
2008-02-21 08:42:58 51°12.468 2°48.244 241.1 13.5 242 11.7
2008-02-21 08:43:03 51°12.459 2°48.218 240.9 13.6 243 11.8
2008-02-21 08:43:08 51°12.45 2°48.191 240.8 13.5 241 11.8
2008-02-21 08:43:13 51°12.441 2°48.165 240.3 13.5 241 11.8
2008-02-21 08:43:18 51°12.432 2°48.139 239.8 13.5 241 11.8
2008-02-21 08:43:23 51°12.423 2°48.113 239.5 13.5 241 11.9
2008-02-21 08:43:28 51°12.414 2°48.087 239.6 13.6 241 11.9
2008-02-21 08:43:33 51°12.405 2°48.06 239.6 13.5 241 11.9
2008-02-21 08:43:38 51°12.395 2°48.035 239.5 13.5 241 11.9
2008-02-21 08:43:43 51°12.386 2°48.008 239.7 13.6 241 11.9
2008-02-21 08:43:48 51°12.377 2°47.982 240.1 13.5 241 11.9
2008-02-21 08:43:53 51°12.368 2°47.956 239.8 13.6 241 11.9
2008-02-21 08:43:58 51°12.359 2°47.93 240 13.5 242 12
2008-02-21 08:44:03 51°12.35 2°47.904 239.8 13.5 241 11.9
2008-02-21 08:44:08 51°12.341 2°47.877 239.5 13.6 241 12
2008-02-21 08:44:13 51°12.332 2°47.852 239.8 13.5 241 12
2008-02-21 08:44:18 51°12.322 2°47.825 239.5 13.5 241 12
2008-02-21 08:44:23 51°12.313 2°47.799 240 13.5 242 12
2008-02-21 08:44:28 51°12.305 2°47.773 240.1 13.5 242 12
2008-02-21 08:44:33 51°12.295 2°47.746 240.3 13.5 241 12.1
2008-02-21 08:44:38 51°12.286 2°47.72 239.7 13.6 241 12.1
2008-02-21 08:44:43 51°12.277 2°47.694 240 13.6 241 12.1
2008-02-21 08:44:48 51°12.268 2°47.668 239.9 13.5 241 12.1
2008-02-21 08:44:53 51°12.259 2°47.642 239.7 13.5 241 12.1
2008-02-21 08:44:58 51°12.25 2°47.615 240 13.6 242 12.1
2008-02-21 08:45:03 51°12.24 2°47.59 239.8 13.5 240 12.1
2008-02-21 08:45:08 51°12.231 2°47.563 239.7 13.6 242 12.1
2008-02-21 08:45:13 51°12.222 2°47.537 240.4 13.6 241 12
2008-02-21 08:45:18 51°12.213 2°47.511 240.1 13.5 241 12.1
2008-02-21 08:45:23 51°12.204 2°47.484 240.3 13.6 242 12.2
2008-02-21 08:45:28 51°12.196 2°47.458 241.2 13.6 242 12.1
2008-02-21 08:45:33 51°12.187 2°47.431 241.2 13.6 242 12.1
2008-02-21 08:45:38 51°12.178 2°47.405 241.3 13.6 243 12.2
2008-02-21 08:45:43 51°12.169 2°47.378 241.3 13.6 242 12.2
2008-02-21 08:45:48 51°12.16 2°47.352 241.2 13.6 242 12.1
2008-02-21 08:45:53 51°12.152 2°47.325 240.9 13.6 242 12.2
2008-02-21 08:45:58 51°12.143 2°47.298 240.9 13.6 243 12.2
2008-02-21 08:46:03 51°12.134 2°47.272 241.2 13.6 242 12.1
2008-02-21 08:46:08 51°12.125 2°47.245 240.9 13.6 242 12.2
2008-02-21 08:46:13 51°12.116 2°47.219 240.5 13.6 242 12.2
2008-02-21 08:46:18 51°12.107 2°47.192 240.8 13.6 242 12.1
2008-02-21 08:46:23 51°12.098 2°47.166 240.4 13.6 241 12.2
2008-02-21 08:46:28 51°12.09 2°47.139 241.3 13.7 245 12.2
2008-02-21 08:46:33 51°12.082 2°47.112 243.5 13.6 245 12.1
2008-02-21 08:46:38 51°12.074 2°47.085 243.4 13.6 244 12.2
2008-02-21 08:46:43 51°12.067 2°47.057 245.3 13.5 249 12.2
2008-02-21 08:46:48 51°12.06 2°47.029 247.4 13.5 248 12.2
2008-02-21 08:46:53 51°12.054 2°47.001 249.1 13.6 251 12.2
2008-02-21 08:46:58 51°12.048 2°46.973 249.8 13.6 250 12.3
2008-02-21 08:47:03 51°12.042 2°46.944 251 13.7 252 12.2
2008-02-21 08:47:08 51°12.036 2°46.915 251.1 13.6 251 12.3
2008-02-21 08:47:13 51°12.03 2°46.887 251.6 13.6 253 12.3
2008-02-21 08:47:18 51°12.024 2°46.858 251.8 13.7 252 12.3
2008-02-21 08:47:23 51°12.019 2°46.829 252.8 13.7 254 12.3
2008-02-21 08:47:28 51°12.014 2°46.8 253.6 13.6 254 12.3
2008-02-21 08:47:33 51°12.009 2°46.771 254.3 13.7 255 12.3
2008-02-21 08:47:38 51°12.003 2°46.742 254.5 13.7 254 12.4
2008-02-21 08:47:43 51°11.999 2°46.713 254.7 13.7 255 12.3
2008-02-21 08:47:48 51°11.994 2°46.683 254.8 13.7 255 12.4
2008-02-21 08:47:53 51°11.988 2°46.655 254.8 13.7 254 12.4
2008-02-21 08:47:58 51°11.983 2°46.625 254.6 13.7 255 12.3
2008-02-21 08:48:03 51°11.978 2°46.596 254.6 13.7 254 12.4
2008-02-21 08:48:08 51°11.973 2°46.567 254.1 13.7 254 12.4
2008-02-21 08:48:13 51°11.968 2°46.538 254.4 13.7 254 12.4
2008-02-21 08:48:18 51°11.962 2°46.509 253.9 13.7 254 12.4
2008-02-21 08:48:23 51°11.957 2°46.48 253.7 13.7 253 12.4
2008-02-21 08:48:28 51°11.951 2°46.451 253.2 13.7 253 12.4
2008-02-21 08:48:33 51°11.946 2°46.422 253.1 13.7 253 12.4
2008-02-21 08:48:38 51°11.94 2°46.393 252.8 13.7 253 12.4
2008-02-21 08:48:43 51°11.935 2°46.364 253.2 13.7 254 12.4
2008-02-21 08:48:49 51°11.928 2°46.329 253.3 13.7 253 12.4
2008-02-21 08:48:53 51°11.924 2°46.306 252.9 13.7 253 12.4
2008-02-21 08:48:58 51°11.918 2°46.278 252.8 13.7 253 12.4
2008-02-21 08:49:03 51°11.913 2°46.248 252.8 13.7 254 12.4
2008-02-21 08:49:08 51°11.907 2°46.22 252.8 13.7 254 12.4
2008-02-21 08:49:13 51°11.903 2°46.19 254.6 13.6 256 12.5
2008-02-21 08:49:18 51°11.898 2°46.161 255.3 13.6 255 12.5
2008-02-21 08:49:23 51°11.894 2°46.132 256.1 13.7 257 12.4
2008-02-21 08:49:28 51°11.889 2°46.103 257.1 13.6 257 12.5
2008-02-21 08:49:33 51°11.885 2°46.073 257.6 13.6 257 12.5
2008-02-21 08:49:38 51°11.881 2°46.044 257.6 13.7 257 12.5
2008-02-21 08:49:43 51°11.877 2°46.014 257.8 13.7 258 12.4
2008-02-21 08:49:48 51°11.873 2°45.985 257.8 13.7 258 12.4
2008-02-21 08:49:53 51°11.869 2°45.955 257.7 13.7 258 12.5
2008-02-21 08:49:58 51°11.865 2°45.926 257.6 13.7 257 12.4
2008-02-21 08:50:03 51°11.861 2°45.896 257.6 13.6 258 12.4
2008-02-21 08:50:08 51°11.856 2°45.867 257.2 13.6 257 12.5
2008-02-21 08:50:13 51°11.852 2°45.838 256.8 13.6 256 12.4
2008-02-21 08:50:18 51°11.847 2°45.808 256.1 13.7 256 12.4
2008-02-21 08:50:23 51°11.843 2°45.779 256.1 13.6 256 12.4
2008-02-21 08:50:28 51°11.838 2°45.75 255.7 13.7 256 12.5
2008-02-21 08:50:33 51°11.834 2°45.721 256 13.7 256 12.5
2008-02-21 08:50:38 51°11.829 2°45.692 256 13.7 256 12.4
2008-02-21 08:50:43 51°11.824 2°45.662 256 13.6 256 12.5
2008-02-21 08:50:48 51°11.82 2°45.633 255.9 13.7 256 12.5
2008-02-21 08:50:53 51°11.815 2°45.604 255.6 13.7 255 12.4
2008-02-21 08:50:58 51°11.81 2°45.575 255.8 13.6 256 12.4
2008-02-21 08:51:03 51°11.806 2°45.546 255.8 13.6 256 12.5
2008-02-21 08:51:08 51°11.801 2°45.517 255.7 13.6 256 12.4
2008-02-21 08:51:13 51°11.797 2°45.488 256.1 13.6 257 12.4
2008-02-21 08:51:18 51°11.793 2°45.459 256.4 13.6 257 12.4
2008-02-21 08:51:23 51°11.789 2°45.429 256.8 13.6 257 12.4
2008-02-21 08:51:28 51°11.784 2°45.4 257.4 13.6 257 12.4
2008-02-21 08:51:33 51°11.78 2°45.371 257.4 13.6 258 12.3
2008-02-21 08:51:38 51°11.776 2°45.341 257.5 13.6 257 12.3
2008-02-21 08:51:43 51°11.772 2°45.312 257.3 13.6 257 12.4
2008-02-21 08:51:48 51°11.768 2°45.283 257.3 13.6 257 12.4
2008-02-21 08:51:53 51°11.764 2°45.254 257.5 13.6 258 12.4
2008-02-21 08:51:58 51°11.759 2°45.225 257.2 13.6 257 12.3
2008-02-21 08:52:03 51°11.755 2°45.195 257.1 13.6 257 12.3
2008-02-21 08:52:08 51°11.751 2°45.166 256.9 13.6 257 12.3
2008-02-21 08:52:13 51°11.746 2°45.137 256.5 13.5 256 12.3
2008-02-21 08:52:18 51°11.742 2°45.108 255.9 13.5 256 12.3
2008-02-21 08:52:23 51°11.737 2°45.08 255.6 13.5 255 12.3
2008-02-21 08:52:28 51°11.733 2°45.051 255.5 13.5 256 12.3
2008-02-21 08:52:33 51°11.728 2°45.022 255.5 13.5 256 12.3
2008-02-21 08:52:38 51°11.724 2°44.993 255.7 13.4 256 12.3
2008-02-21 08:52:43 51°11.719 2°44.964 255.6 13.4 256 12.3
2008-02-21 08:52:48 51°11.715 2°44.936 255.6 13.5 256 12.2
2008-02-21 08:52:53 51°11.71 2°44.907 255.7 13.5 256 12.3
2008-02-21 08:52:58 51°11.706 2°44.878 256.1 13.4 257 12.2
2008-02-21 08:53:03 51°11.702 2°44.849 256.1 13.4 257 12.2
2008-02-21 08:53:08 51°11.698 2°44.82 256.8 13.4 257 12.2
2008-02-21 08:53:13 51°11.693 2°44.791 256.8 13.4 257 12.2
2008-02-21 08:53:18 51°11.689 2°44.762 256.8 13.5 257 12.1
2008-02-21 08:53:23 51°11.685 2°44.733 256.8 13.5 257 12.1
2008-02-21 08:53:28 51°11.681 2°44.704 256.7 13.4 257 12.1
2008-02-21 08:53:33 51°11.677 2°44.676 256.8 13.4 257 12.1
2008-02-21 08:53:38 51°11.672 2°44.647 256.3 13.4 256 12.1
2008-02-21 08:53:43 51°11.668 2°44.618 255.8 13.4 256 12.1
2008-02-21 08:53:48 51°11.663 2°44.589 255.4 13.4 256 12.1
2008-02-21 08:53:53 51°11.659 2°44.561 255.4 13.4 257 12.1
2008-02-21 08:53:58 51°11.655 2°44.532 256 13.3 256 12.1
2008-02-21 08:54:03 51°11.65 2°44.504 255.7 13.3 256 12.1
2008-02-21 08:54:08 51°11.646 2°44.475 255.5 13.4 256 12
2008-02-21 08:54:13 51°11.641 2°44.446 255.7 13.4 256 12
2008-02-21 08:54:18 51°11.637 2°44.417 256.1 13.3 257 12
2008-02-21 08:54:23 51°11.632 2°44.389 256.2 13.3 256 12
2008-02-21 08:54:28 51°11.628 2°44.36 255.8 13.3 256 12
2008-02-21 08:54:33 51°11.623 2°44.332 255.8 13.4 256 12
2008-02-21 08:54:38 51°11.619 2°44.303 256.1 13.3 258 12
2008-02-21 08:54:43 51°11.615 2°44.274 256.8 13.4 256 12
2008-02-21 08:54:48 51°11.611 2°44.246 256.8 13.3 258 11.9
2008-02-21 08:54:53 51°11.607 2°44.217 257.2 13.3 257 11.9
2008-02-21 08:54:58 51°11.603 2°44.188 256.8 13.3 257 11.9
2008-02-21 08:55:03 51°11.599 2°44.159 256.8 13.3 257 11.9
2008-02-21 08:55:08 51°11.595 2°44.131 257.3 13.3 257 11.8
2008-02-21 08:55:13 51°11.591 2°44.102 256.8 13.3 257 11.8
2008-02-21 08:55:18 51°11.587 2°44.074 256.8 13.3 257 11.8
2008-02-21 08:55:23 51°11.582 2°44.045 256.4 13.3 256 11.8
2008-02-21 08:55:28 51°11.578 2°44.017 256.1 13.3 256 11.8
2008-02-21 08:55:33 51°11.573 2°43.988 255.7 13.2 256 11.8
2008-02-21 08:55:38 51°11.569 2°43.96 255.4 13.2 256 11.8
2008-02-21 08:55:43 51°11.565 2°43.931 256.1 13.3 258 11.8
2008-02-21 08:55:48 51°11.561 2°43.902 257.5 13.3 258 11.8
2008-02-21 08:55:53 51°11.558 2°43.874 258.3 13.3 259 11.8
2008-02-21 08:55:58 51°11.555 2°43.845 259.3 13.3 260 11.7
2008-02-21 08:56:03 51°11.552 2°43.816 259.6 13.3 260 11.7
2008-02-21 08:56:08 51°11.549 2°43.787 260.5 13.3 261 11.7
2008-02-21 08:56:13 51°11.546 2°43.758 260.7 13.2 261 11.7
2008-02-21 08:56:18 51°11.543 2°43.73 260.7 13.2 261 11.6
2008-02-21 08:56:23 51°11.54 2°43.701 260.5 13.2 260 11.7
2008-02-21 08:56:28 51°11.537 2°43.672 260 13.2 260 11.6
2008-02-21 08:56:33 51°11.534 2°43.643 260.1 13.2 260 11.5
2008-02-21 08:56:38 51°11.53 2°43.615 259.7 13.1 259 11.5
2008-02-21 08:56:43 51°11.526 2°43.587 259 13.1 259 11.6
2008-02-21 08:56:48 51°11.523 2°43.558 258.6 13.1 259 11.5
2008-02-21 08:56:53 51°11.52 2°43.53 258.6 13.1 259 11.4
2008-02-21 08:56:58 51°11.516 2°43.502 258.6 13.1 259 11.4
2008-02-21 08:57:03 51°11.513 2°43.473 259 13 259 11.4
2008-02-21 08:57:08 51°11.509 2°43.445 258.8 13 258 11.3
2008-02-21 08:57:13 51°11.505 2°43.417 258.5 13 259 11.2
2008-02-21 08:57:18 51°11.502 2°43.389 258.4 13 258 11.2
2008-02-21 08:57:23 51°11.498 2°43.361 258.6 12.9 258 11.3
2008-02-21 08:57:28 51°11.493 2°43.334 257.9 12.9 254 11.2
2008-02-21 08:57:33 51°11.488 2°43.307 253.9 12.8 251 11.1
2008-02-21 08:57:38 51°11.483 2°43.28 252.6 12.8 254 11.2
2008-02-21 08:57:43 51°11.476 2°43.253 251.8 12.8 250 11.1
2008-02-21 08:57:48 51°11.47 2°43.227 250.3 12.9 250 11.1
2008-02-21 08:57:53 51°11.463 2°43.201 248.3 12.8 246 11.1
2008-02-21 08:57:58 51°11.456 2°43.175 245.9 12.8 246 11.1
2008-02-21 08:58:03 51°11.448 2°43.149 245.2 12.9 244 11.1
2008-02-21 08:58:08 51°11.44 2°43.124 243.8 13 244 11.1
2008-02-21 08:58:13 51°11.432 2°43.098 243.3 12.9 243 11.1
2008-02-21 08:58:18 51°11.424 2°43.073 242.6 12.9 243 11.1
2008-02-21 08:58:23 51°11.416 2°43.048 242.4 12.9 243 11.2
2008-02-21 08:58:28 51°11.408 2°43.022 242 13 243 11.3
2008-02-21 08:58:33 51°11.4 2°42.997 242.3 12.9 244 11.3
2008-02-21 08:58:38 51°11.392 2°42.971 242.3 12.9 244 11.3
2008-02-21 08:58:43 51°11.384 2°42.946 242.3 13 243 11.3
2008-02-21 08:58:48 51°11.376 2°42.92 242.1 12.9 243 11.3
2008-02-21 08:58:53 51°11.368 2°42.894 241.9 12.9 243 11.3
2008-02-21 08:58:58 51°11.359 2°42.869 241.9 13 243 11.3
2008-02-21 08:59:03 51°11.352 2°42.843 242.3 13.1 244 11.3
2008-02-21 08:59:08 51°11.344 2°42.817 242.8 13 243 11.3
2008-02-21 08:59:13 51°11.335 2°42.791 242.4 13 244 11.3
2008-02-21 08:59:18 51°11.327 2°42.765 242.2 13.1 243 11.3
2008-02-21 08:59:23 51°11.319 2°42.74 242 13.1 243 11.4
2008-02-21 08:59:28 51°11.311 2°42.714 242.2 13.1 244 11.3
2008-02-21 08:59:33 51°11.303 2°42.688 242.7 13.1 244 11.4
2008-02-21 08:59:38 51°11.296 2°42.662 243.3 13.1 245 11.4
2008-02-21 08:59:43 51°11.288 2°42.635 243.7 13.1 245 11.4
2008-02-21 08:59:48 51°11.28 2°42.609 243.8 13.1 245 11.4
2008-02-21 08:59:53 51°11.273 2°42.583 244 13.1 246 11.4
2008-02-21 08:59:58 51°11.265 2°42.557 244 13.1 245 11.5
2008-02-21 09:00:03 51°11.257 2°42.531 243.8 13.1 245 11.4
2008-02-21 09:00:08 51°11.25 2°42.504 243.8 13.1 245 11.5
2008-02-21 09:00:13 51°11.241 2°42.479 243 13 243 11.5
2008-02-21 09:00:18 51°11.233 2°42.453 242.4 13.1 244 11.5
2008-02-21 09:00:23 51°11.225 2°42.427 242.7 13.1 244 11.5
2008-02-21 09:00:29 51°11.216 2°42.396 242.3 13.1 244 11.5
2008-02-21 09:00:33 51°11.209 2°42.375 242.4 13.1 244 11.5
2008-02-21 09:00:38 51°11.201 2°42.349 242.5 13.1 244 11.5
2008-02-21 09:00:43 51°11.193 2°42.323 242.6 13.1 244 11.5
2008-02-21 09:00:48 51°11.185 2°42.297 242.3 13.1 244 11.6
2008-02-21 09:00:53 51°11.177 2°42.271 242.5 13.1 244 11.6
2008-02-21 09:00:58 51°11.169 2°42.245 242.5 13.2 244 11.6
2008-02-21 09:01:03 51°11.161 2°42.219 242.8 13.2 244 11.6
2008-02-21 09:01:08 51°11.153 2°42.193 242.8 13.1 244 11.6
2008-02-21 09:01:13 51°11.145 2°42.167 242.4 13.1 244 11.6
2008-02-21 09:01:18 51°11.137 2°42.141 242.4 13.1 244 11.7
2008-02-21 09:01:23 51°11.129 2°42.115 242.5 13.2 244 11.7
2008-02-21 09:01:28 51°11.121 2°42.089 242.9 13.2 244 11.7
2008-02-21 09:01:33 51°11.113 2°42.063 242.9 13.2 244 11.7
2008-02-21 09:01:38 51°11.105 2°42.037 242.6 13.2 244 11.6
2008-02-21 09:01:43 51°11.097 2°42.011 243.6 13.2 245 11.7
2008-02-21 09:01:48 51°11.089 2°41.984 243.8 13.2 245 11.8
2008-02-21 09:01:53 51°11.082 2°41.958 244.2 13.2 246 11.7
2008-02-21 09:01:58 51°11.074 2°41.932 244.5 13.1 245 11.7
2008-02-21 09:02:03 51°11.066 2°41.905 244.1 13.2 245 11.8
2008-02-21 09:02:08 51°11.059 2°41.879 244.2 13.2 245 11.7
2008-02-21 09:02:13 51°11.051 2°41.853 244 13.2 245 11.7
2008-02-21 09:02:18 51°11.043 2°41.826 243.7 13.2 244 11.7
2008-02-21 09:02:23 51°11.035 2°41.8 243 13.2 243 11.8
2008-02-21 09:02:28 51°11.027 2°41.774 242.5 13.2 244 11.9
2008-02-21 09:02:33 51°11.019 2°41.748 242.4 13.2 243 11.9
2008-02-21 09:02:38 51°11.01 2°41.723 242.1 13.2 243 11.9
2008-02-21 09:02:43 51°11.002 2°41.697 242.1 13.2 243 11.8
2008-02-21 09:02:48 51°10.995 2°41.67 242.8 13.2 245 11.8
2008-02-21 09:02:53 51°10.986 2°41.644 243.4 13.2 244 11.8
2008-02-21 09:02:58 51°10.979 2°41.617 243.9 13.2 245 11.8
2008-02-21 09:03:03 51°10.971 2°41.591 243.7 13.2 244 11.8
2008-02-21 09:03:08 51°10.963 2°41.565 243.8 13.2 246 11.9
2008-02-21 09:03:13 51°10.955 2°41.538 244.3 13.2 244 11.9
2008-02-21 09:03:18 51°10.948 2°41.512 244.1 13.2 245 11.9
2008-02-21 09:03:23 51°10.94 2°41.486 244.1 13.1 244 11.9
2008-02-21 09:03:28 51°10.932 2°41.459 244 13.1 245 12
2008-02-21 09:03:33 51°10.924 2°41.433 243.8 13.2 245 11.9
2008-02-21 09:03:38 51°10.917 2°41.407 243.8 13.2 245 11.9
2008-02-21 09:03:43 51°10.908 2°41.381 243.3 13.2 243 11.9
2008-02-21 09:03:48 51°10.9 2°41.355 242.7 13.2 244 12
2008-02-21 09:03:53 51°10.892 2°41.329 242.5 13.2 243 11.9
2008-02-21 09:03:58 51°10.884 2°41.303 242.3 13.2 243 12
2008-02-21 09:04:03 51°10.876 2°41.277 242.3 13.2 243 12
2008-02-21 09:04:08 51°10.868 2°41.251 242.5 13.2 244 12
2008-02-21 09:04:13 51°10.859 2°41.225 242.7 13.2 244 12
2008-02-21 09:04:18 51°10.851 2°41.199 242.7 13.2 244 12
2008-02-21 09:04:23 51°10.844 2°41.172 243 13.2 245 11.9
2008-02-21 09:04:28 51°10.835 2°41.147 243.1 13.2 244 12
2008-02-21 09:04:33 51°10.827 2°41.12 243 13.1 245 12
2008-02-21 09:04:38 51°10.82 2°41.094 243.6 13.1 245 12.1
2008-02-21 09:04:43 51°10.811 2°41.068 243.5 13.1 243 12
2008-02-21 09:04:48 51°10.803 2°41.042 242.8 13.2 244 12.2
2008-02-21 09:04:53 51°10.795 2°41.016 242.6 13.1 243 12.1
2008-02-21 09:04:58 51°10.787 2°40.99 242.6 13.2 244 12.2
2008-02-21 09:05:03 51°10.779 2°40.965 242.7 13.1 243 12.1
2008-02-21 09:05:08 51°10.77 2°40.938 242.7 13.2 243 12.2
2008-02-21 09:05:13 51°10.763 2°40.912 243 13.2 244 12.2
2008-02-21 09:05:18 51°10.754 2°40.886 243 13.2 244 12.3
2008-02-21 09:05:23 51°10.747 2°40.86 243.6 13.1 245 12.3
2008-02-21 09:05:28 51°10.739 2°40.834 243.9 13.1 245 12.4
2008-02-21 09:05:33 51°10.731 2°40.808 244.1 13.2 244 12.4
2008-02-21 09:05:38 51°10.723 2°40.782 244.1 13.1 245 12.4
2008-02-21 09:05:43 51°10.715 2°40.755 244.1 13.2 244 12.4
2008-02-21 09:05:48 51°10.707 2°40.729 243.7 13.2 244 12.4
2008-02-21 09:05:53 51°10.699 2°40.703 243.3 13.1 244 12.5
2008-02-21 09:05:58 51°10.691 2°40.677 242.9 13.1 244 12.5
2008-02-21 09:06:03 51°10.683 2°40.651 242.7 13.1 243 12.5
2008-02-21 09:06:08 51°10.675 2°40.625 242.8 13.2 244 12.6
2008-02-21 09:06:13 51°10.666 2°40.599 242.6 13.2 243 12.7
2008-02-21 09:06:18 51°10.658 2°40.573 242.7 13.1 244 12.7
2008-02-21 09:06:23 51°10.65 2°40.548 242.7 13.2 243 12.7
2008-02-21 09:06:28 51°10.642 2°40.521 242.8 13.2 244 12.8
2008-02-21 09:06:33 51°10.634 2°40.496 242.8 13.2 243 12.9
2008-02-21 09:06:38 51°10.626 2°40.47 242.7 13.2 244 12.9
2008-02-21 09:06:43 51°10.617 2°40.444 242.9 13.2 243 12.9
2008-02-21 09:06:48 51°10.609 2°40.417 243 13.2 244 13
2008-02-21 09:06:53 51°10.601 2°40.391 243.2 13.2 244 13
2008-02-21 09:06:58 51°10.593 2°40.365 243 13.2 244 13
2008-02-21 09:07:03 51°10.585 2°40.339 243 13.2 244 13.1
2008-02-21 09:07:08 51°10.577 2°40.313 242.9 13.2 244 13.1
2008-02-21 09:07:13 51°10.569 2°40.287 243 13.1 243 13.1
2008-02-21 09:07:18 51°10.56 2°40.261 242.7 13.2 243 13.1
2008-02-21 09:07:23 51°10.552 2°40.235 242.9 13.2 244 13.2
2008-02-21 09:07:28 51°10.544 2°40.209 243 13.2 244 13.2
2008-02-21 09:07:33 51°10.536 2°40.183 243.2 13.2 244 13.2
2008-02-21 09:07:38 51°10.528 2°40.157 243.6 13.2 245 13.3
2008-02-21 09:07:43 51°10.52 2°40.13 243.9 13.2 245 13.3
2008-02-21 09:07:48 51°10.513 2°40.104 244.3 13.2 245 13.3
2008-02-21 09:07:53 51°10.505 2°40.078 244.4 13.2 245 13.3
2008-02-21 09:07:58 51°10.497 2°40.051 243.9 13.2 244 13.4
2008-02-21 09:08:03 51°10.488 2°40.025 243.6 13.3 244 13.4
2008-02-21 09:08:08 51°10.48 2°39.999 243.1 13.2 244 13.5
2008-02-21 09:08:13 51°10.472 2°39.973 243.1 13.2 244 13.5
2008-02-21 09:08:18 51°10.464 2°39.947 242.9 13.2 243 13.5
2008-02-21 09:08:23 51°10.456 2°39.921 242.7 13.2 243 13.5
2008-02-21 09:08:28 51°10.447 2°39.895 242.5 13.2 243 13.5
2008-02-21 09:08:33 51°10.439 2°39.869 242.7 13.2 244 13.6
2008-02-21 09:08:38 51°10.431 2°39.842 243 13.2 244 13.5
2008-02-21 09:08:43 51°10.423 2°39.816 243 13.3 244 13.5
2008-02-21 09:08:48 51°10.415 2°39.79 243.4 13.2 244 13.6
2008-02-21 09:08:53 51°10.407 2°39.764 243.6 13.2 244 13.7
2008-02-21 09:08:58 51°10.399 2°39.737 243.7 13.2 244 13.7
2008-02-21 09:09:03 51°10.392 2°39.711 243.8 13.2 244 13.7
2008-02-21 09:09:08 51°10.383 2°39.685 243.8 13.2 244 13.7
2008-02-21 09:09:13 51°10.375 2°39.658 243.3 13.3 244 13.8
2008-02-21 09:09:18 51°10.368 2°39.632 243.8 13.3 244 13.8
2008-02-21 09:09:23 51°10.36 2°39.606 243.9 13.2 244 13.8
2008-02-21 09:09:29 51°10.35 2°39.574 244.2 13.2 244 13.9
2008-02-21 09:09:33 51°10.344 2°39.553 244 13.2 244 14
2008-02-21 09:09:38 51°10.336 2°39.527 243.8 13.2 244 14
2008-02-21 09:09:43 51°10.327 2°39.501 243.1 13.2 243 14
2008-02-21 09:09:48 51°10.319 2°39.475 242.9 13.2 244 14.1
2008-02-21 09:09:53 51°10.311 2°39.449 242.5 13.2 243 14.2
2008-02-21 09:09:58 51°10.303 2°39.423 242.7 13.2 244 14.2
2008-02-21 09:10:03 51°10.295 2°39.397 242.9 13.2 243 14.2
2008-02-21 09:10:08 51°10.287 2°39.37 242.9 13.3 244 14.2
2008-02-21 09:10:13 51°10.279 2°39.344 243.2 13.2 244 14.3
2008-02-21 09:10:18 51°10.27 2°39.318 243 13.3 243 14.3
2008-02-21 09:10:23 51°10.262 2°39.292 243 13.2 244 14.4
2008-02-21 09:10:28 51°10.254 2°39.266 242.8 13.2 243 14.5
2008-02-21 09:10:33 51°10.246 2°39.24 242.8 13.2 244 14.5
2008-02-21 09:10:38 51°10.238 2°39.213 242.8 13.2 243 14.6
2008-02-21 09:10:43 51°10.229 2°39.187 242.8 13.2 244 14.6
2008-02-21 09:10:48 51°10.221 2°39.161 242.9 13.3 243 14.6
2008-02-21 09:10:53 51°10.213 2°39.135 243 13.3 244 14.6
2008-02-21 09:10:58 51°10.205 2°39.109 242.8 13.2 243 14.7
2008-02-21 09:11:03 51°10.197 2°39.083 242.8 13.3 244 14.6
2008-02-21 09:11:08 51°10.189 2°39.056 243 13.2 244 14.7
2008-02-21 09:11:13 51°10.18 2°39.03 243.3 13.3 244 14.6
2008-02-21 09:11:18 51°10.173 2°39.003 243.8 13.3 244 14.8
2008-02-21 09:11:23 51°10.165 2°38.977 243.9 13.3 245 14.6
2008-02-21 09:11:28 51°10.157 2°38.951 243.9 13.2 244 14.7
2008-02-21 09:11:33 51°10.149 2°38.924 243.9 13.3 244 14.7
2008-02-21 09:11:38 51°10.141 2°38.898 243.3 13.3 244 14.7
2008-02-21 09:11:43 51°10.133 2°38.872 243.5 13.2 244 14.7
2008-02-21 09:11:48 51°10.125 2°38.845 243.8 13.3 244 14.8
2008-02-21 09:11:53 51°10.116 2°38.819 243.6 13.4 244 14.9
2008-02-21 09:11:58 51°10.109 2°38.792 243.8 13.3 245 14.7
2008-02-21 09:12:03 51°10.101 2°38.766 244.2 13.3 244 14.8
2008-02-21 09:12:08 51°10.092 2°38.739 244 13.3 244 14.8
2008-02-21 09:12:13 51°10.085 2°38.713 243.8 13.3 244 14.7
2008-02-21 09:12:18 51°10.076 2°38.687 243.2 13.3 244 14.9
2008-02-21 09:12:23 51°10.068 2°38.66 243.4 13.3 244 14.9
2008-02-21 09:12:28 51°10.06 2°38.634 243.4 13.3 244 14.9
2008-02-21 09:12:33 51°10.052 2°38.608 243 13.3 243 14.9
2008-02-21 09:12:38 51°10.044 2°38.581 242.9 13.3 244 15
2008-02-21 09:12:43 51°10.036 2°38.555 242.9 13.3 243 15.1
2008-02-21 09:12:48 51°10.027 2°38.529 242.8 13.3 243 15.1
2008-02-21 09:12:53 51°10.019 2°38.503 242.9 13.3 244 15.1
2008-02-21 09:12:58 51°10.011 2°38.476 243 13.3 244 15.1
2008-02-21 09:13:03 51°10.003 2°38.45 243 13.3 244 15.1
2008-02-21 09:13:08 51°9.995 2°38.424 243 13.3 244 15.1
2008-02-21 09:13:13 51°9.987 2°38.397 242.6 13.3 243 15
2008-02-21 09:13:18 51°9.978 2°38.371 242.8 13.3 244 15.1
2008-02-21 09:13:23 51°9.97 2°38.345 243 13.3 243 15.2
2008-02-21 09:13:28 51°9.962 2°38.318 243.1 13.3 245 15.2
2008-02-21 09:13:33 51°9.955 2°38.292 243.8 13.3 245 15.3
2008-02-21 09:13:38 51°9.946 2°38.265 244 13.3 244 15.2
2008-02-21 09:13:43 51°9.939 2°38.239 244 13.3 245 15.3
2008-02-21 09:13:48 51°9.93 2°38.213 243.7 13.3 244 15.3
2008-02-21 09:13:53 51°9.922 2°38.186 243.6 13.3 244 15.4
2008-02-21 09:13:58 51°9.914 2°38.16 243.1 13.3 243 15.4
2008-02-21 09:14:03 51°9.906 2°38.133 242.9 13.3 244 15.4
2008-02-21 09:14:08 51°9.898 2°38.107 243 13.3 244 15.5
2008-02-21 09:14:13 51°9.891 2°38.08 244.3 13.3 246 15.5
2008-02-21 09:14:18 51°9.884 2°38.053 246.3 13.2 247 15.5
2008-02-21 09:14:23 51°9.876 2°38.027 246.5 13.3 247 15.4
2008-02-21 09:14:28 51°9.87 2°38 247.6 13.3 249 15.4
2008-02-21 09:14:33 51°9.862 2°37.972 247.8 13.3 248 15.7
2008-02-21 09:14:38 51°9.856 2°37.945 248 13.3 249 15.8
2008-02-21 09:14:43 51°9.849 2°37.918 248.2 13.3 248 15.9
2008-02-21 09:14:48 51°9.842 2°37.89 248 13.3 248 15.9
2008-02-21 09:14:53 51°9.835 2°37.863 248 13.3 248 15.9
2008-02-21 09:14:58 51°9.828 2°37.836 248.1 13.3 248 15.8
2008-02-21 09:15:03 51°9.821 2°37.809 247.6 13.3 247 15.5
2008-02-21 09:15:08 51°9.814 2°37.782 247.2 13.3 247 15.7
2008-02-21 09:15:13 51°9.807 2°37.755 247 13.2 247 15.9
2008-02-21 09:15:18 51°9.8 2°37.728 247.1 13.3 248 15.4
2008-02-21 09:15:23 51°9.792 2°37.701 247.2 13.3 247 15.7
2008-02-21 09:15:28 51°9.785 2°37.674 247.1 13.3 247 16.1
2008-02-21 09:15:33 51°9.778 2°37.647 247.4 13.3 248 16.1
2008-02-21 09:15:38 51°9.771 2°37.62 247.7 13.3 248 15.8
2008-02-21 09:15:43 51°9.764 2°37.593 247.5 13.3 247 15.8
2008-02-21 09:15:48 51°9.757 2°37.566 247.3 13.3 248 16.1
2008-02-21 09:15:53 51°9.75 2°37.539 247.3 13.3 247 16.1
2008-02-21 09:15:58 51°9.743 2°37.512 247.2 13.3 248 16
2008-02-21 09:16:03 51°9.736 2°37.484 247.4 13.3 247 16.1
2008-02-21 09:16:08 51°9.729 2°37.457 247.7 13.3 248 16
2008-02-21 09:16:13 51°9.722 2°37.43 247.9 13.3 248 16
2008-02-21 09:16:18 51°9.715 2°37.403 247.9 13.3 248 16
2008-02-21 09:16:23 51°9.708 2°37.376 247.4 13.3 247 16
2008-02-21 09:16:28 51°9.701 2°37.348 247.2 13.3 247 16
2008-02-21 09:16:33 51°9.694 2°37.322 247 13.3 247 16
2008-02-21 09:16:38 51°9.687 2°37.295 246.6 13.3 247 16
2008-02-21 09:16:43 51°9.68 2°37.267 247.3 13.3 248 16
2008-02-21 09:16:48 51°9.672 2°37.24 247.3 13.3 247 16
2008-02-21 09:16:53 51°9.665 2°37.213 247.1 13.3 247 16
2008-02-21 09:16:58 51°9.658 2°37.186 247 13.3 247 16
2008-02-21 09:17:03 51°9.651 2°37.159 247 13.3 248 15.8
2008-02-21 09:17:08 51°9.644 2°37.133 246.8 13.2 246 15.8
2008-02-21 09:17:13 51°9.637 2°37.105 246.9 13.3 248 15.8
2008-02-21 09:17:18 51°9.63 2°37.078 247.4 13.3 247 15.7
2008-02-21 09:17:23 51°9.623 2°37.051 247.2 13.2 247 15.7
2008-02-21 09:17:28 51°9.616 2°37.024 247.1 13.3 248 15.7
2008-02-21 09:17:33 51°9.609 2°36.997 247.5 13.3 248 15.7
2008-02-21 09:17:38 51°9.602 2°36.97 247.4 13.3 247 15.7
2008-02-21 09:17:43 51°9.595 2°36.943 247.2 13.3 247 15.7
2008-02-21 09:17:48 51°9.588 2°36.916 247.4 13.3 247 15.6
2008-02-21 09:17:53 51°9.581 2°36.888 247.4 13.3 248 15.6
2008-02-21 09:17:58 51°9.574 2°36.861 247.4 13.3 247 15.5
2008-02-21 09:18:03 51°9.567 2°36.834 247.6 13.3 248 15.4
2008-02-21 09:18:08 51°9.559 2°36.807 247.4 13.3 247 15.4
2008-02-21 09:18:13 51°9.552 2°36.78 247.2 13.3 247 15.7
2008-02-21 09:18:18 51°9.545 2°36.753 247 13.3 247 15.7
2008-02-21 09:18:23 51°9.538 2°36.726 246.9 13.3 248 15.3
2008-02-21 09:18:28 51°9.531 2°36.698 247.6 13.3 248 15.5
2008-02-21 09:18:33 51°9.524 2°36.672 247.3 13.3 247 15.5
2008-02-21 09:18:38 51°9.517 2°36.644 247.7 13.3 249 15.6
2008-02-21 09:18:43 51°9.51 2°36.617 248 13.3 247 15.3
2008-02-21 09:18:48 51°9.504 2°36.59 247.8 13.2 248 15.3
2008-02-21 09:18:53 51°9.497 2°36.564 247.9 12.6 248 15.5
2008-02-21 09:18:58 51°9.491 2°36.54 248.2 11.9 249 15.7
2008-02-21 09:19:03 51°9.485 2°36.517 248.2 11.4 248 15.8
2008-02-21 09:19:08 51°9.479 2°36.495 248.1 10.9 248 15.6
2008-02-21 09:19:13 51°9.473 2°36.473 247.8 10.6 247 15.9
2008-02-21 09:19:18 51°9.468 2°36.452 247.8 10.3 248 16.2
2008-02-21 09:19:23 51°9.462 2°36.432 247.6 9.9 247 16.1
2008-02-21 09:19:28 51°9.458 2°36.413 247.4 9.3 247 16
2008-02-21 09:19:33 51°9.453 2°36.396 247.3 8.7 246 16
2008-02-21 09:19:38 51°9.448 2°36.38 246.7 8.1 245 16.2
2008-02-21 09:19:43 51°9.443 2°36.366 243 7.4 239 16.3
2008-02-21 09:19:48 51°9.437 2°36.353 237.2 6.8 234 16.2
2008-02-21 09:19:53 51°9.431 2°36.342 231.3 6.5 230 16.2
2008-02-21 09:19:58 51°9.426 2°36.333 225.3 6 225 16.3
2008-02-21 09:20:03 51°9.42 2°36.325 219.6 5.6 220 15.9
2008-02-21 09:20:08 51°9.414 2°36.319 213.8 5.3 215 16.1
2008-02-21 09:20:13 51°9.408 2°36.313 207.8 4.9 210 16.1
2008-02-21 09:20:18 51°9.402 2°36.309 201.9 4.7 205 15.9
2008-02-21 09:20:23 51°9.396 2°36.306 195.9 4.5 197 16.5
2008-02-21 09:20:28 51°9.39 2°36.304 189.7 4.3 193 16
2008-02-21 09:20:33 51°9.384 2°36.303 182.4 4.2 186 15.8
2008-02-21 09:20:38 51°9.378 2°36.303 175.1 4.1 179 16.1
2008-02-21 09:20:43 51°9.373 2°36.304 169.3 4.1 173 15.6
2008-02-21 09:20:48 51°9.367 2°36.306 161.6 4 166 15.9
2008-02-21 09:20:53 51°9.362 2°36.309 155.9 4 162 15.8
2008-02-21 09:20:58 51°9.357 2°36.313 150.1 4 156 15.7
2008-02-21 09:21:03 51°9.352 2°36.317 144.9 4 151 15.6
2008-02-21 09:21:08 51°9.347 2°36.322 139.7 4 144 15.7
2008-02-21 09:21:13 51°9.343 2°36.328 134.9 4.1 141 15.7
2008-02-21 09:21:18 51°9.339 2°36.334 130.9 4.2 138 15.8
2008-02-21 09:21:23 51°9.334 2°36.34 128 4.3 135 15.9
2008-02-21 09:21:28 51°9.33 2°36.348 125.8 4.3 132 15.9
2008-02-21 09:21:33 51°9.327 2°36.355 123.5 4.4 130 15.9
2008-02-21 09:21:38 51°9.323 2°36.363 121 4.5 128 16
2008-02-21 09:21:43 51°9.319 2°36.371 119.2 4.5 125 15.9
2008-02-21 09:21:48 51°9.315 2°36.379 117.4 4.7 124 16.1
2008-02-21 09:21:53 51°9.311 2°36.388 116.3 4.8 123 16
2008-02-21 09:21:58 51°9.308 2°36.397 115.4 4.7 121 16
2008-02-21 09:22:03 51°9.305 2°36.406 114.3 4.6 118 16
2008-02-21 09:22:08 51°9.303 2°36.415 109.1 4.2 112 16
2008-02-21 09:22:13 51°9.301 2°36.423 103.2 4 109 16
2008-02-21 09:22:18 51°9.3 2°36.431 98.7 3.7 105 15.9
2008-02-21 09:22:23 51°9.299 2°36.438 95 3.4 101 15.9
2008-02-21 09:22:28 51°9.298 2°36.445 91.5 3.2 98 15.8
2008-02-21 09:22:33 51°9.298 2°36.451 88.3 3 96 15.7
2008-02-21 09:22:38 51°9.298 2°36.458 85.1 2.8 92 15.6
2008-02-21 09:22:43 51°9.298 2°36.464 82.7 2.7 89 15.6
2008-02-21 09:22:48 51°9.298 2°36.469 79.3 2.5 86 15.6
2008-02-21 09:22:53 51°9.298 2°36.475 76.5 2.5 84 15.8
2008-02-21 09:22:58 51°9.299 2°36.48 73.8 2.4 81 15.8
2008-02-21 09:23:03 51°9.3 2°36.485 71.8 2.3 77 15.8
2008-02-21 09:23:08 51°9.3 2°36.49 70.6 2.3 76 15.8
2008-02-21 09:23:13 51°9.302 2°36.495 69.8 2.3 75 15.8
2008-02-21 09:23:18 51°9.302 2°36.5 69.4 2.2 76 15.8
2008-02-21 09:23:23 51°9.303 2°36.504 69 2.2 72 15.8
2008-02-21 09:23:28 51°9.304 2°36.509 68.9 2.1 75 15.8
2008-02-21 09:23:33 51°9.305 2°36.513 68.6 2.1 71 15.8
2008-02-21 09:23:38 51°9.306 2°36.517 68.6 2 77 15.6
2008-02-21 09:23:43 51°9.307 2°36.522 68.9 2 73 15.6
2008-02-21 09:23:48 51°9.308 2°36.525 68.9 1.9 74 15.7
2008-02-21 09:23:53 51°9.308 2°36.53 68.9 1.8 73 15.8
2008-02-21 09:23:58 51°9.309 2°36.534 69.3 1.9 74 15.7
2008-02-21 09:24:03 51°9.31 2°36.537 69.4 1.8 73 15.8
2008-02-21 09:24:08 51°9.311 2°36.541 69.6 1.8 76 15.9
2008-02-21 09:24:13 51°9.311 2°36.545 69.7 1.7 78 15.9
2008-02-21 09:24:18 51°9.312 2°36.548 70.1 1.6 73 15.8
2008-02-21 09:24:23 51°9.313 2°36.552 70.3 1.5 75 15.8
2008-02-21 09:24:28 51°9.313 2°36.555 70.8 1.4 74 15.9
2008-02-21 09:24:33 51°9.313 2°36.557 71.5 1.2 81 15.9
2008-02-21 09:24:38 51°9.314 2°36.56 73.8 1 81 15.9
2008-02-21 09:24:43 51°9.314 2°36.561 76.6 0.8 90 15.8
2008-02-21 09:24:48 51°9.314 2°36.563 79.4 0.6 86 15.8
2008-02-21 09:24:53 51°9.313 2°36.564 81.5 0.5 97 15.8
2008-02-21 09:24:58 51°9.313 2°36.565 83.4 0.5 97 15.8
2008-02-21 09:25:03 51°9.313 2°36.566 84.8 0.6 104 15.8
2008-02-21 09:25:08 51°9.313 2°36.567 86.4 0.5 99 15.8
2008-02-21 09:25:13 51°9.313 2°36.569 87.4 0.6 104 15.7
2008-02-21 09:25:18 51°9.313 2°36.57 88.5 0.6 98 15.8
2008-02-21 09:25:23 51°9.312 2°36.571 89.2 0.6 104 15.7
2008-02-21 09:25:28 51°9.312 2°36.572 89.8 0.6 102 15.7
2008-02-21 09:25:33 51°9.312 2°36.574 90.4 0.6 103 15.7
2008-02-21 09:25:38 51°9.312 2°36.575 90.8 0.6 103 15.7
2008-02-21 09:25:43 51°9.311 2°36.576 91.2 0.7 106 15.8
2008-02-21 09:25:48 51°9.311 2°36.578 91.4 0.7 99 15.8
2008-02-21 09:25:53 51°9.311 2°36.579 92.1 0.7 105 15.7
2008-02-21 09:25:58 51°9.311 2°36.581 92.8 0.7 104 15.7
2008-02-21 09:26:03 51°9.31 2°36.582 93.3 0.7 107 15.7
2008-02-21 09:26:08 51°9.31 2°36.583 94 0.7 107 15.7
2008-02-21 09:26:13 51°9.31 2°36.585 94.6 0.7 103 15.7
2008-02-21 09:26:18 51°9.31 2°36.586 95.4 0.7 111 15.7
2008-02-21 09:26:23 51°9.309 2°36.587 95.9 0.7 109 15.7
2008-02-21 09:26:28 51°9.309 2°36.589 96.4 0.7 110 15.7
2008-02-21 09:26:33 51°9.309 2°36.59 96.8 0.7 109 15.6
2008-02-21 09:26:38 51°9.309 2°36.592 97.2 0.7 108 15.7
2008-02-21 09:26:43 51°9.308 2°36.593 97.3 0.7 113 15.6
2008-02-21 09:26:48 51°9.308 2°36.594 97.5 0.7 108 15.6
2008-02-21 09:26:53 51°9.307 2°36.596 97.7 0.7 113 15.6
2008-02-21 09:26:58 51°9.307 2°36.597 97.8 0.7 109 15.6
2008-02-21 09:27:03 51°9.306 2°36.599 97.9 0.7 117 15.6
2008-02-21 09:27:08 51°9.306 2°36.6 98.1 0.7 113 15.6
2008-02-21 09:27:13 51°9.306 2°36.601 98.2 0.7 118 15.5
2008-02-21 09:27:18 51°9.305 2°36.603 98.5 0.7 113 15.5
2008-02-21 09:27:23 51°9.305 2°36.604 98.5 0.7 117 15.4
2008-02-21 09:27:28 51°9.305 2°36.606 98.6 0.8 110 15.5
2008-02-21 09:27:33 51°9.304 2°36.607 98.6 0.8 119 15.4
2008-02-21 09:27:38 51°9.304 2°36.609 98.7 0.7 107 15.4
2008-02-21 09:27:43 51°9.303 2°36.61 98.6 0.8 120 15.4
2008-02-21 09:27:48 51°9.303 2°36.612 98.8 0.7 103 15.4
2008-02-21 09:27:53 51°9.303 2°36.613 98.9 0.8 113 15.4
2008-02-21 09:27:58 51°9.302 2°36.615 98.9 0.8 104 15.4
2008-02-21 09:28:03 51°9.302 2°36.616 98.8 0.8 114 15.4
2008-02-21 09:28:08 51°9.302 2°36.618 98.8 0.7 110 15.5
2008-02-21 09:28:13 51°9.301 2°36.62 98.9 0.8 114 15.4
2008-02-21 09:28:18 51°9.3 2°36.621 99.2 0.7 110 15.4
2008-02-21 09:28:23 51°9.3 2°36.623 99.3 0.8 115 15.4
2008-02-21 09:28:28 51°9.3 2°36.624 99.8 0.7 116 15.4
2008-02-21 09:28:33 51°9.299 2°36.626 100.1 0.7 121 15.4
2008-02-21 09:28:38 51°9.299 2°36.627 100.3 0.8 117 15.4
2008-02-21 09:28:43 51°9.298 2°36.629 100.5 0.7 115 15.4
2008-02-21 09:28:48 51°9.298 2°36.63 100.7 0.8 114 15.4